createdAt,value
2023-05-10T00:00:31.122Z,100041.06
2023-05-10T00:02:58.958Z,100038.91
2023-05-10T00:05:28.153Z,100046.84
2023-05-10T00:07:56.021Z,100046.00
2023-05-10T00:10:23.955Z,100035.72
2023-05-10T00:12:51.871Z,100043.72
2023-05-10T00:15:19.801Z,100035.19
2023-05-10T00:17:47.566Z,100036.50
2023-05-10T00:20:15.540Z,100032.69
2023-05-10T00:22:44.963Z,100034.84
2023-05-10T00:25:12.702Z,100039.16
2023-05-10T00:27:40.421Z,100036.19
2023-05-10T00:30:09.418Z,100034.06
2023-05-10T00:32:37.207Z,100036.84
2023-05-10T00:35:06.711Z,100038.69
2023-05-10T00:37:34.473Z,100034.69
2023-05-10T00:40:03.806Z,100039.34
2023-05-10T00:42:31.845Z,100031.06
2023-05-10T00:44:59.664Z,100037.69
2023-05-10T00:47:28.184Z,100036.69
2023-05-10T00:49:58.872Z,100030.03
2023-05-10T00:52:27.560Z,100040.66
2023-05-10T00:54:56.337Z,100036.03
2023-05-10T00:57:26.112Z,100032.53
2023-05-10T00:59:53.989Z,100032.34
2023-05-10T01:02:21.838Z,100035.91
2023-05-10T01:04:50.869Z,100040.06
2023-05-10T01:07:18.718Z,100040.69
2023-05-10T01:09:46.627Z,100039.72
2023-05-10T01:12:14.692Z,100043.88
2023-05-10T01:14:48.988Z,100037.41
2023-05-10T01:17:17.810Z,100041.88
2023-05-10T01:19:45.628Z,100039.41
2023-05-10T01:22:31.974Z,100033.25
2023-05-10T01:25:18.685Z,100032.75
2023-05-10T01:28:16.252Z,100036.41
2023-05-10T01:31:20.677Z,100032.25
2023-05-10T01:33:54.532Z,100041.22
2023-05-10T01:36:28.832Z,100034.59
2023-05-10T01:39:03.421Z,100044.53
2023-05-10T01:41:38.687Z,100023.34
2023-05-10T01:44:16.567Z,100043.34
2023-05-10T01:46:44.613Z,100028.66
2023-05-10T01:49:20.241Z,100053.88
2023-05-10T01:51:53.565Z,100047.72
2023-05-10T01:54:23.707Z,100049.88
2023-05-10T01:56:58.136Z,100051.72
2023-05-10T01:59:31.750Z,100047.38
2023-05-10T02:02:01.239Z,100045.88
2023-05-10T02:04:30.799Z,100042.41
2023-05-10T02:06:59.574Z,100054.34
2023-05-10T02:09:29.825Z,100043.06
2023-05-10T02:12:00.608Z,100044.41
2023-05-10T02:14:29.608Z,100044.88
2023-05-10T02:16:58.898Z,100052.69
2023-05-10T02:19:30.797Z,100049.22
2023-05-10T02:22:00.679Z,100061.00
2023-05-10T02:24:30.209Z,100058.53
2023-05-10T02:26:59.333Z,100056.38
2023-05-10T02:29:29.127Z,100062.34
2023-05-10T02:31:59.491Z,100060.34
2023-05-10T02:34:28.604Z,100061.34
2023-05-10T02:36:58.450Z,100068.38
2023-05-10T02:39:30.424Z,100072.16
2023-05-10T02:41:59.656Z,100064.72
2023-05-10T02:44:32.068Z,100078.47
2023-05-10T02:47:00.851Z,100074.81
2023-05-10T02:49:29.657Z,100072.00
2023-05-10T02:52:03.272Z,100075.13
2023-05-10T02:54:34.068Z,100079.28
2023-05-10T02:57:06.812Z,100079.13
2023-05-10T02:59:34.764Z,100079.59
2023-05-10T03:02:03.315Z,100085.56
2023-05-10T03:04:31.144Z,100082.25
2023-05-10T03:07:01.016Z,100065.00
2023-05-10T03:09:28.941Z,100076.09
2023-05-10T03:12:05.964Z,100074.09
2023-05-10T03:14:51.489Z,100044.34
2023-05-10T03:17:25.872Z,100082.63
2023-05-10T03:19:57.164Z,100078.47
2023-05-10T03:22:32.741Z,100084.59
2023-05-10T03:25:07.569Z,100087.28
2023-05-10T03:27:38.467Z,100094.09
2023-05-10T03:30:09.989Z,100092.06
2023-05-10T03:32:38.094Z,100097.03
2023-05-10T03:35:09.411Z,100093.53
2023-05-10T03:37:38.974Z,100097.75
2023-05-10T03:40:10.013Z,100083.63
2023-05-10T03:42:41.638Z,100097.19
2023-05-10T03:45:11.065Z,100104.22
2023-05-10T03:47:38.842Z,100107.19
2023-05-10T03:50:08.032Z,100101.56
2023-05-10T03:52:35.904Z,100106.06
2023-05-10T03:55:05.636Z,100101.91
2023-05-10T03:57:33.633Z,100106.88
2023-05-10T04:00:01.835Z,100113.16
2023-05-10T04:02:31.090Z,100106.50
2023-05-10T04:04:59.229Z,100102.19
2023-05-10T04:07:27.053Z,100105.34
2023-05-10T04:09:54.777Z,100113.31
2023-05-10T04:12:27.092Z,100082.94
2023-05-10T04:14:55.922Z,100109.50
2023-05-10T04:17:23.776Z,100113.81
2023-05-10T04:19:53.992Z,100110.00
2023-05-10T04:22:22.092Z,100108.16
2023-05-10T04:24:50.918Z,100106.50
2023-05-10T04:27:18.762Z,100100.03
2023-05-10T04:29:47.793Z,100099.84
2023-05-10T04:32:17.449Z,100096.03
2023-05-10T04:36:01.049Z,100080.31
2023-05-10T04:38:29.090Z,100102.72
2023-05-10T04:41:05.417Z,100111.88
2023-05-10T04:43:33.182Z,100087.00
2023-05-10T04:46:02.415Z,100111.38
2023-05-10T04:48:30.331Z,100113.22
2023-05-10T04:50:58.331Z,100114.88
2023-05-10T04:53:26.073Z,100115.88
2023-05-10T04:55:53.932Z,100132.16
2023-05-10T04:58:21.925Z,100133.16
2023-05-10T05:00:49.864Z,100134.16
2023-05-10T05:03:19.120Z,100126.19
2023-05-10T05:05:46.954Z,100106.09
2023-05-10T05:08:14.876Z,100122.84
2023-05-10T05:10:42.793Z,100129.00
2023-05-10T05:13:10.643Z,100139.31
2023-05-10T05:15:38.439Z,100142.78
2023-05-10T05:18:06.387Z,100148.63
2023-05-10T05:20:36.064Z,100154.44
2023-05-10T05:23:03.861Z,100155.13
2023-05-10T05:25:31.595Z,100155.97
2023-05-10T05:27:59.357Z,100151.31
2023-05-10T05:30:27.248Z,100155.13
2023-05-10T05:32:54.931Z,100164.09
2023-05-10T05:35:22.722Z,100162.91
2023-05-10T05:37:51.872Z,100167.09
2023-05-10T05:40:19.651Z,100165.78
2023-05-10T05:42:47.408Z,100168.44
2023-05-10T05:45:15.457Z,100172.09
2023-05-10T05:47:43.748Z,100168.94
2023-05-10T05:50:12.440Z,100161.94
2023-05-10T05:52:40.169Z,100165.63
2023-05-10T05:55:09.776Z,100173.09
2023-05-10T05:57:37.492Z,100176.91
2023-05-10T06:00:06.049Z,100179.41
2023-05-10T06:02:40.586Z,100183.38
2023-05-10T06:05:09.455Z,100187.72
2023-05-10T06:07:37.416Z,100191.69
2023-05-10T06:10:06.950Z,100186.69
2023-05-10T06:12:36.134Z,100189.34
2023-05-10T06:15:04.189Z,100171.41
2023-05-10T06:17:32.091Z,100200.34
2023-05-10T06:19:59.858Z,100198.34
2023-05-10T06:22:27.692Z,100207.81
2023-05-10T06:24:55.393Z,100216.94
2023-05-10T06:27:23.198Z,100216.63
2023-05-10T06:29:56.492Z,100210.31
2023-05-10T06:32:30.077Z,100216.47
2023-05-10T06:34:57.895Z,100217.97
2023-05-10T06:37:25.738Z,100207.97
2023-05-10T06:39:53.520Z,100223.59
2023-05-10T06:42:21.155Z,100224.44
2023-05-10T06:44:49.101Z,100220.94
2023-05-10T06:47:18.167Z,100222.41
2023-05-10T06:49:46.112Z,100234.22
2023-05-10T06:52:13.847Z,100233.06
2023-05-10T06:54:41.611Z,100232.91
2023-05-10T06:57:19.487Z,100233.38
2023-05-10T06:59:57.774Z,100236.88
2023-05-10T07:02:27.232Z,100243.91
2023-05-10T07:04:55.410Z,100241.38
2023-05-10T07:07:23.376Z,100234.56
2023-05-10T07:09:52.239Z,100241.41
2023-05-10T07:12:20.206Z,100247.84
2023-05-10T07:14:55.928Z,100244.88
2023-05-10T07:17:23.820Z,100244.22
2023-05-10T07:19:52.950Z,100227.59
2023-05-10T07:22:20.718Z,100251.88
2023-05-10T07:24:48.524Z,100252.34
2023-05-10T07:27:16.289Z,100250.19
2023-05-10T07:29:44.022Z,100249.88
2023-05-10T07:32:11.838Z,100257.84
2023-05-10T07:34:39.695Z,100232.44
2023-05-10T07:37:08.817Z,100259.84
2023-05-10T07:39:36.537Z,100259.16
2023-05-10T07:42:04.878Z,100255.50
2023-05-10T07:44:32.674Z,100262.81
2023-05-10T07:47:00.424Z,100254.00
2023-05-10T07:49:28.229Z,100257.03
2023-05-10T07:51:56.013Z,100250.69
2023-05-10T07:54:25.088Z,100251.84
2023-05-10T07:56:53.009Z,100264.16
2023-05-10T07:59:21.006Z,100253.19
2023-05-10T08:01:48.809Z,100265.63
2023-05-10T08:04:17.140Z,100270.13
2023-05-10T08:06:44.871Z,100264.47
2023-05-10T08:09:13.036Z,100264.47
2023-05-10T08:11:42.171Z,100274.44
2023-05-10T08:14:10.089Z,100275.75
2023-05-10T08:16:37.817Z,100280.06
2023-05-10T08:19:05.918Z,100281.06
2023-05-10T08:21:34.155Z,100279.44
2023-05-10T08:24:01.893Z,100281.72
2023-05-10T08:26:29.776Z,100284.06
2023-05-10T08:28:58.856Z,100274.13
2023-05-10T08:31:26.698Z,100284.41
2023-05-10T08:33:54.479Z,100267.75
2023-05-10T08:36:24.964Z,100284.91
2023-05-10T08:38:53.671Z,100284.06
2023-05-10T08:41:22.785Z,100282.91
2023-05-10T08:43:52.008Z,100300.03
2023-05-10T08:46:22.890Z,100296.88
2023-05-10T08:48:52.697Z,100299.38
2023-05-10T08:51:22.188Z,100300.03
2023-05-10T08:53:50.045Z,100300.03
2023-05-10T08:56:18.784Z,100307.34
2023-05-10T08:58:46.952Z,100304.19
2023-05-10T09:01:17.683Z,100307.69
2023-05-10T09:03:48.184Z,100312.00
2023-05-10T09:06:16.570Z,100307.00
2023-05-10T09:08:45.439Z,100308.28
2023-05-10T09:11:14.583Z,100313.59
2023-05-10T09:13:43.603Z,100294.13
2023-05-10T09:16:21.125Z,100304.78
2023-05-10T09:18:51.809Z,100317.91
2023-05-10T09:21:21.329Z,100320.03
2023-05-10T09:23:51.098Z,100310.22
2023-05-10T09:26:19.366Z,100318.03
2023-05-10T09:28:55.382Z,100319.88
2023-05-10T09:31:23.375Z,100326.16
2023-05-10T09:33:52.851Z,100328.25
2023-05-10T09:36:20.610Z,100331.78
2023-05-10T09:38:49.757Z,100335.47
2023-05-10T09:41:19.107Z,100340.50
2023-05-10T09:43:46.953Z,100339.00
2023-05-10T09:46:14.969Z,100332.88
2023-05-10T09:48:44.797Z,100339.84
2023-05-10T09:51:21.395Z,100351.50
2023-05-10T09:53:51.440Z,100335.19
2023-05-10T09:56:36.991Z,100350.19
2023-05-10T09:59:05.159Z,100353.84
2023-05-10T10:01:33.044Z,100350.88
2023-05-10T10:04:01.034Z,100351.50
2023-05-10T10:06:30.761Z,100349.53
2023-05-10T10:08:58.921Z,100353.19
2023-05-10T10:11:26.784Z,100343.19
2023-05-10T10:13:59.429Z,100341.19
2023-05-10T10:16:29.120Z,100353.69
2023-05-10T10:18:57.112Z,100351.34
2023-05-10T10:21:25.206Z,100353.00
2023-05-10T10:23:54.994Z,100355.84
2023-05-10T10:26:23.470Z,100342.19
2023-05-10T10:28:59.060Z,100361.81
2023-05-10T10:31:34.471Z,100352.84
2023-05-10T10:34:05.658Z,100353.16
2023-05-10T10:36:34.814Z,100352.19
2023-05-10T10:39:05.119Z,100350.16
2023-05-10T10:41:35.325Z,100348.19
2023-05-10T10:44:37.639Z,100352.81
2023-05-10T10:47:25.802Z,100367.31
2023-05-10T10:50:04.375Z,100362.16
2023-05-10T10:52:38.513Z,100357.84
2023-05-10T10:55:09.372Z,100351.16
2023-05-10T10:57:46.199Z,100354.97
2023-05-10T11:00:28.577Z,100356.06
2023-05-10T11:02:59.556Z,100340.66
2023-05-10T11:05:37.129Z,100357.50
2023-05-10T11:08:11.994Z,100340.56
2023-05-10T11:10:42.146Z,100371.63
2023-05-10T11:13:11.952Z,100368.50
2023-05-10T11:15:40.889Z,100367.41
2023-05-10T11:18:22.193Z,100356.72
2023-05-10T11:20:53.120Z,100357.13
2023-05-10T11:23:22.130Z,100371.22
2023-05-10T11:25:51.778Z,100369.63
2023-05-10T11:28:21.047Z,100373.63
2023-05-10T11:30:49.318Z,100379.81
2023-05-10T11:33:18.792Z,100377.31
2023-05-10T11:35:46.511Z,100365.09
2023-05-10T11:38:15.153Z,100374.75
2023-05-10T11:40:43.452Z,100377.75
2023-05-10T11:43:13.303Z,100379.81
2023-05-10T11:45:43.342Z,100385.06
2023-05-10T11:48:11.280Z,100387.13
2023-05-10T11:50:39.108Z,100390.94
2023-05-10T11:53:06.903Z,100395.63
2023-05-10T11:55:36.206Z,100399.88
2023-05-10T11:58:04.806Z,100395.59
2023-05-10T12:00:34.510Z,100391.09
2023-05-10T12:03:03.147Z,100386.94
2023-05-10T12:05:35.070Z,100389.47
2023-05-10T12:08:16.538Z,100384.53
2023-05-10T12:10:44.372Z,100388.94
2023-05-10T12:13:16.292Z,100391.41
2023-05-10T12:15:45.844Z,100375.38
2023-05-10T12:18:14.623Z,100378.91
2023-05-10T12:20:43.556Z,100386.00
2023-05-10T12:23:12.129Z,100383.22
2023-05-10T12:25:40.831Z,100384.34
2023-05-10T12:28:10.579Z,100366.19
2023-05-10T12:30:39.731Z,100384.47
2023-05-10T12:33:12.713Z,100383.63
2023-05-10T12:35:48.748Z,100389.41
2023-05-10T12:38:29.805Z,100387.56
2023-05-10T12:40:57.957Z,100387.06
2023-05-10T12:43:25.886Z,100389.94
2023-05-10T12:45:53.803Z,100390.03
2023-05-10T12:48:22.939Z,100394.38
2023-05-10T12:50:50.908Z,100394.66
2023-05-10T12:53:18.913Z,100400.09
2023-05-10T12:55:46.868Z,100397.34
2023-05-10T12:58:31.565Z,100403.25
2023-05-10T13:01:02.624Z,100394.34
2023-05-10T13:03:31.783Z,100403.81
2023-05-10T13:05:59.493Z,100399.13
2023-05-10T13:08:27.321Z,100408.91
2023-05-10T13:10:55.406Z,100406.81
2023-05-10T13:13:23.260Z,100412.44
2023-05-10T13:15:51.013Z,100411.38
2023-05-10T13:18:18.818Z,100393.38
2023-05-10T13:20:48.207Z,100416.84
2023-05-10T13:23:15.926Z,100404.75
2023-05-10T13:25:43.701Z,100406.25
2023-05-10T13:28:11.473Z,100405.19
2023-05-10T13:30:42.225Z,100408.91
2023-05-10T13:33:10.104Z,100401.97
2023-05-10T13:35:37.852Z,100412.53
2023-05-10T13:38:09.055Z,100418.44
2023-05-10T13:40:47.149Z,100423.63
2023-05-10T13:43:18.366Z,100343.13
2023-05-10T13:45:46.211Z,100373.78
2023-05-10T13:48:13.927Z,100415.25
2023-05-10T13:50:41.670Z,100402.06
2023-05-10T13:53:10.839Z,100410.16
2023-05-10T13:55:38.689Z,100403.59
2023-05-10T13:58:06.434Z,100400.41
2023-05-10T14:00:36.540Z,100398.84
2023-05-10T14:03:06.026Z,100409.59
2023-05-10T14:05:35.080Z,100402.63
2023-05-10T14:08:02.956Z,100398.38
2023-05-10T14:10:32.175Z,100393.88
2023-05-10T14:13:00.166Z,100397.44
2023-05-10T14:15:30.698Z,100392.00
2023-05-10T14:17:58.639Z,100391.97
2023-05-10T14:20:26.659Z,100376.69
2023-05-10T14:22:54.426Z,100385.66
2023-05-10T14:25:22.223Z,100385.66
2023-05-10T14:27:51.291Z,100387.38
2023-05-10T14:30:19.213Z,100364.44
2023-05-10T14:32:47.095Z,100395.44
2023-05-10T14:35:16.137Z,100386.38
2023-05-10T14:37:46.388Z,100396.16
2023-05-10T14:40:16.256Z,100387.50
2023-05-10T14:42:46.193Z,100397.66
2023-05-10T14:45:17.469Z,100397.00
2023-05-10T14:47:45.466Z,100394.31
2023-05-10T14:50:35.212Z,100392.22
2023-05-10T14:53:04.213Z,100389.84
2023-05-10T14:55:35.717Z,100389.78
2023-05-10T14:58:07.026Z,100391.06
2023-05-10T15:00:36.216Z,100388.84
2023-05-10T15:03:06.993Z,100387.56
2023-05-10T15:05:35.340Z,100383.34
2023-05-10T15:08:06.653Z,100387.03
2023-05-10T15:10:36.281Z,100381.38
2023-05-10T15:13:05.292Z,100381.50
2023-05-10T15:15:42.866Z,100388.56
2023-05-10T15:18:17.681Z,100387.31
2023-05-10T15:20:48.912Z,100392.31
2023-05-10T15:23:16.716Z,100388.44
2023-05-10T15:25:46.084Z,100377.00
2023-05-10T15:28:14.018Z,100380.78
2023-05-10T15:30:43.225Z,100388.44
2023-05-10T15:33:11.050Z,100385.59
2023-05-10T15:35:45.442Z,100388.44
2023-05-10T15:38:23.355Z,100379.66
2023-05-10T15:40:51.139Z,100395.22
2023-05-10T15:43:20.770Z,100398.09
2023-05-10T15:45:49.947Z,100410.44
2023-05-10T15:48:17.957Z,100414.94
2023-05-10T15:50:46.012Z,100406.94
2023-05-10T15:53:13.789Z,100419.91
2023-05-10T15:55:41.613Z,100418.16
2023-05-10T15:58:09.340Z,100420.88
2023-05-10T16:00:37.126Z,100414.28
2023-05-10T16:03:06.750Z,100414.78
2023-05-10T16:05:34.940Z,100411.41
2023-05-10T16:08:02.937Z,100416.31
2023-05-10T16:10:35.629Z,100412.38
2023-05-10T16:13:04.120Z,100421.66
2023-05-10T16:15:34.976Z,100416.44
2023-05-10T16:18:03.002Z,100408.41
2023-05-10T16:20:33.835Z,100416.22
2023-05-10T16:23:09.740Z,100437.91
2023-05-10T16:25:37.558Z,100424.91
2023-05-10T16:28:05.502Z,100419.91
2023-05-10T16:30:33.318Z,100412.69
2023-05-10T16:33:02.416Z,100427.94
2023-05-10T16:35:32.067Z,100428.69
2023-05-10T16:38:01.343Z,100419.53
2023-05-10T16:40:29.028Z,100427.94
2023-05-10T16:42:56.812Z,100431.22
2023-05-10T16:45:25.735Z,100429.88
2023-05-10T16:47:54.209Z,100421.44
2023-05-10T16:50:22.413Z,100428.72
2023-05-10T16:52:50.696Z,100433.94
2023-05-10T16:55:19.914Z,100434.28
2023-05-10T16:57:50.878Z,100444.50
2023-05-10T17:00:20.866Z,100447.31
2023-05-10T17:02:49.274Z,100445.28
2023-05-10T17:05:17.344Z,100460.03
2023-05-10T17:07:45.258Z,100458.91
2023-05-10T17:10:13.528Z,100458.84
2023-05-10T17:12:42.642Z,100464.25
2023-05-10T17:15:11.778Z,100449.31
2023-05-10T17:17:39.714Z,100461.47
2023-05-10T17:20:09.408Z,100456.78
2023-05-10T17:22:39.260Z,100457.63
2023-05-10T17:25:08.196Z,100458.72
2023-05-10T17:27:35.974Z,100457.78
2023-05-10T17:30:06.045Z,100446.03
2023-05-10T17:32:34.123Z,100467.75
2023-05-10T17:35:01.919Z,100469.28
2023-05-10T17:37:29.861Z,100474.81
2023-05-10T17:40:05.782Z,100454.28
2023-05-10T17:42:33.574Z,100471.44
2023-05-10T17:45:01.929Z,100478.06
2023-05-10T17:47:31.063Z,100481.41
2023-05-10T17:50:05.244Z,100483.56
2023-05-10T17:52:33.723Z,100472.16
2023-05-10T17:55:05.632Z,100472.44
2023-05-10T17:57:33.459Z,100486.91
2023-05-10T18:00:02.308Z,100480.63
2023-05-10T18:02:34.167Z,100490.06
2023-05-10T18:05:02.163Z,100497.44
2023-05-10T18:07:30.226Z,100504.78
2023-05-10T18:09:57.997Z,100503.94
2023-05-10T18:12:28.754Z,100486.03
2023-05-10T18:14:56.905Z,100506.19
2023-05-10T18:17:24.904Z,100499.38
2023-05-10T18:19:54.162Z,100495.22
2023-05-10T18:22:21.995Z,100499.06
2023-05-10T18:24:54.546Z,100504.56
2023-05-10T18:27:24.724Z,100499.97
2023-05-10T18:29:52.611Z,100507.31
2023-05-10T18:32:20.406Z,100503.66
2023-05-10T18:34:48.252Z,100492.38
2023-05-10T18:37:18.129Z,100506.03
2023-05-10T18:39:46.054Z,100515.41
2023-05-10T18:42:13.917Z,100485.59
2023-05-10T18:44:41.725Z,100511.13
2023-05-10T18:47:10.349Z,100505.28
2023-05-10T18:49:38.908Z,100518.81
2023-05-10T18:52:06.677Z,100526.28
2023-05-10T18:54:35.826Z,100501.53
2023-05-10T18:57:03.602Z,100522.50
2023-05-10T18:59:31.489Z,100522.19
2023-05-10T19:01:59.299Z,100512.88
2023-05-10T19:04:27.219Z,100521.56
2023-05-10T19:06:55.756Z,100525.88
2023-05-10T19:09:24.115Z,100525.88
2023-05-10T19:11:53.575Z,100527.88
2023-05-10T19:14:21.485Z,100507.25
2023-05-10T19:16:53.230Z,100530.91
2023-05-10T19:19:21.374Z,100535.91
2023-05-10T19:21:49.216Z,100539.09
2023-05-10T19:24:18.217Z,100529.91
2023-05-10T19:26:46.852Z,100550.09
2023-05-10T19:29:16.270Z,100497.34
2023-05-10T19:31:44.119Z,100551.25
2023-05-10T19:34:15.212Z,100543.25
2023-05-10T19:36:43.075Z,100547.91
2023-05-10T19:39:10.883Z,100550.78
2023-05-10T19:41:45.932Z,100554.06
2023-05-10T19:44:15.682Z,100547.09
2023-05-10T19:46:45.029Z,100558.56
2023-05-10T19:49:12.842Z,100554.44
2023-05-10T19:51:41.443Z,100560.94
2023-05-10T19:54:09.238Z,100559.59
2023-05-10T19:56:37.131Z,100568.25
2023-05-10T19:59:06.630Z,100538.28
2023-05-10T20:01:34.709Z,100548.75
2023-05-10T20:04:04.034Z,100568.91
2023-05-10T20:06:31.991Z,100570.44
2023-05-10T20:08:59.860Z,100569.63
2023-05-10T20:11:27.589Z,100566.28
2023-05-10T20:13:58.160Z,100539.28
2023-05-10T20:16:26.871Z,100558.63
2023-05-10T20:18:55.054Z,100561.09
2023-05-10T20:21:26.398Z,100567.25
2023-05-10T20:23:54.144Z,100565.44
2023-05-10T20:26:22.381Z,100558.28
2023-05-10T20:28:51.130Z,100564.28
2023-05-10T20:31:19.014Z,100558.63
2023-05-10T20:33:46.816Z,100566.28
2023-05-10T20:36:17.368Z,100551.63
2023-05-10T20:38:46.529Z,100563.59
2023-05-10T20:41:14.316Z,100558.28
2023-05-10T20:43:42.242Z,100553.09
2023-05-10T20:46:10.191Z,100558.91
2023-05-10T20:48:38.096Z,100560.59
2023-05-10T20:51:05.917Z,100566.25
2023-05-10T20:53:33.830Z,100559.25
2023-05-10T20:56:03.296Z,100558.91
2023-05-10T20:58:35.554Z,100519.28
2023-05-10T21:01:03.753Z,100561.75
2023-05-10T21:03:31.491Z,100561.22
2023-05-10T21:05:59.515Z,100539.59
2023-05-10T21:08:27.598Z,100572.22
2023-05-10T21:10:59.362Z,100568.06
2023-05-10T21:13:28.629Z,100563.06
2023-05-10T21:15:56.427Z,100562.56
2023-05-10T21:18:27.559Z,100538.09
2023-05-10T21:20:58.234Z,100524.59
2023-05-10T21:23:28.799Z,100562.75
2023-05-10T21:25:56.890Z,100543.72
2023-05-10T21:28:24.774Z,100533.41
2023-05-10T21:30:54.041Z,100568.22
2023-05-10T21:33:21.871Z,100574.38
2023-05-10T21:35:50.886Z,100575.53
2023-05-10T21:38:18.631Z,100566.69
2023-05-10T21:40:46.409Z,100571.19
2023-05-10T21:43:16.522Z,100567.84
2023-05-10T21:45:46.236Z,100562.72
2023-05-10T21:48:15.370Z,100575.03
2023-05-10T21:50:43.773Z,100578.34
2023-05-10T21:53:11.834Z,100569.19
2023-05-10T21:55:39.586Z,100571.53
2023-05-10T21:58:07.435Z,100570.19
2023-05-10T22:00:35.492Z,100567.38
2023-05-10T22:03:06.357Z,100567.84
2023-05-10T22:05:35.636Z,100571.53
2023-05-10T22:08:03.378Z,100576.03
2023-05-10T22:10:31.156Z,100577.84
2023-05-10T22:13:06.222Z,100573.69
2023-05-10T22:15:36.493Z,100575.03
2023-05-10T22:18:07.733Z,100579.84
2023-05-10T22:20:37.083Z,100568.22
2023-05-10T22:23:04.889Z,100571.34
2023-05-10T22:25:38.652Z,100564.03
2023-05-10T22:28:07.409Z,100561.84
2023-05-10T22:30:35.211Z,100570.50
2023-05-10T22:33:10.406Z,100567.84
2023-05-10T22:35:40.935Z,100575.69
2023-05-10T22:38:23.663Z,100573.50
2023-05-10T22:40:51.516Z,100578.50
2023-05-10T22:43:19.394Z,100584.81
2023-05-10T22:45:47.227Z,100587.47
2023-05-10T22:48:18.777Z,100581.16
2023-05-10T22:50:47.997Z,100508.69
2023-05-10T22:53:15.987Z,100577.97
2023-05-10T22:55:47.254Z,100583.31
2023-05-10T22:58:15.065Z,100580.81
2023-05-10T23:00:43.131Z,100567.13
2023-05-10T23:03:11.144Z,100572.28
2023-05-10T23:05:40.492Z,100576.16
2023-05-10T23:08:09.620Z,100589.78
2023-05-10T23:10:38.389Z,100564.47
2023-05-10T23:13:06.290Z,100588.31
2023-05-10T23:15:35.592Z,100587.47
2023-05-10T23:18:05.495Z,100594.13
2023-05-10T23:20:33.650Z,100598.13
2023-05-10T23:23:01.444Z,100590.63
2023-05-10T23:25:30.549Z,100591.13
2023-05-10T23:28:00.166Z,100588.47
2023-05-10T23:30:28.074Z,100598.44
2023-05-10T23:32:57.105Z,100590.47
2023-05-10T23:35:24.966Z,100596.78
2023-05-10T23:37:52.693Z,100590.28
2023-05-10T23:40:20.625Z,100590.28
2023-05-10T23:42:49.998Z,100590.13
2023-05-10T23:45:17.970Z,100587.47
2023-05-10T23:47:45.941Z,100584.13
2023-05-10T23:50:13.836Z,100584.13
2023-05-10T23:52:41.640Z,100588.47
2023-05-10T23:55:10.778Z,100596.13
2023-05-10T23:57:39.207Z,100579.13
